sensor_id;sensor_type;location;lat;lon;timestamp;pressure;altitude;pressure_sealevel;temperature;humidity
21803;BME280;18591;47.080;22.214;2023-01-29T00:00:16;100055.19;;;5.08;57.39
21803;BME280;18591;47.080;22.214;2023-01-29T00:02:19;100050.75;;;5.07;57.43
21803;BME280;18591;47.080;22.214;2023-01-29T00:04:21;100059.69;;;4.99;57.67
21803;BME280;18591;47.080;22.214;2023-01-29T00:06:26;100052.59;;;4.98;56.69
21803;BME280;18591;47.080;22.214;2023-01-29T00:08:29;100058.88;;;4.91;56.86
21803;BME280;18591;47.080;22.214;2023-01-29T00:10:33;100051.69;;;4.98;56.75
21803;BME280;18591;47.080;22.214;2023-01-29T00:12:35;100054.31;;;5.06;57.14
21803;BME280;18591;47.080;22.214;2023-01-29T00:14:37;100061.44;;;5.02;56.87
21803;BME280;18591;47.080;22.214;2023-01-29T00:16:39;100060.50;;;5.08;56.87
21803;BME280;18591;47.080;22.214;2023-01-29T00:18:42;100067.66;;;5.02;57.01
21803;BME280;18591;47.080;22.214;2023-01-29T00:20:44;100058.78;;;5.02;57.38
21803;BME280;18591;47.080;22.214;2023-01-29T00:22:47;100063.22;;;5.01;57.06
21803;BME280;18591;47.080;22.214;2023-01-29T00:24:49;100063.31;;;4.88;56.86
21803;BME280;18591;47.080;22.214;2023-01-29T00:26:51;100057.94;;;4.98;57.00
21803;BME280;18591;47.080;22.214;2023-01-29T00:28:57;100064.16;;;4.94;57.26
21803;BME280;18591;47.080;22.214;2023-01-29T00:31:13;100070.38;;;4.90;57.26
21803;BME280;18591;47.080;22.214;2023-01-29T00:33:17;100068.59;;;4.95;56.55
21803;BME280;18591;47.080;22.214;2023-01-29T00:35:20;100072.13;;;4.97;56.95
21803;BME280;18591;47.080;22.214;2023-01-29T00:37:22;100071.16;;;5.08;56.62
21803;BME280;18591;47.080;22.214;2023-01-29T00:39:24;100075.66;;;4.98;56.43
21803;BME280;18591;47.080;22.214;2023-01-29T00:41:39;100073.03;;;4.96;56.42
21803;BME280;18591;47.080;22.214;2023-01-29T00:44:00;100073.91;;;4.95;55.51
21803;BME280;18591;47.080;22.214;2023-01-29T00:46:20;100069.50;;;4.90;56.43
21803;BME280;18591;47.080;22.214;2023-01-29T00:48:23;100077.56;;;4.84;56.16
21803;BME280;18591;47.080;22.214;2023-01-29T00:50:25;100077.53;;;4.85;56.12
21803;BME280;18591;47.080;22.214;2023-01-29T00:52:28;100079.31;;;4.86;56.35
21803;BME280;18591;47.080;22.214;2023-01-29T00:54:30;100075.81;;;4.78;55.96
21803;BME280;18591;47.080;22.214;2023-01-29T00:56:35;100077.56;;;4.77;56.04
21803;BME280;18591;47.080;22.214;2023-01-29T00:58:38;100080.25;;;4.76;55.90
21803;BME280;18591;47.080;22.214;2023-01-29T01:00:42;100086.47;;;4.76;56.24
21803;BME280;18591;47.080;22.214;2023-01-29T01:02:44;100082.06;;;4.65;56.45
21803;BME280;18591;47.080;22.214;2023-01-29T01:05:06;100086.47;;;4.75;56.08
21803;BME280;18591;47.080;22.214;2023-01-29T01:07:16;100083.78;;;4.75;56.42
21803;BME280;18591;47.080;22.214;2023-01-29T01:09:18;100088.19;;;4.84;56.04
21803;BME280;18591;47.080;22.214;2023-01-29T01:11:39;100090.88;;;4.80;55.74
21803;BME280;18591;47.080;22.214;2023-01-29T01:13:41;100086.41;;;4.83;55.68
21803;BME280;18591;47.080;22.214;2023-01-29T01:15:43;100085.56;;;4.77;56.20
21803;BME280;18591;47.080;22.214;2023-01-29T01:17:46;100092.63;;;4.80;56.14
21803;BME280;18591;47.080;22.214;2023-01-29T01:19:50;100089.09;;;4.79;56.00
21803;BME280;18591;47.080;22.214;2023-01-29T01:21:52;100088.22;;;4.79;56.34
21803;BME280;18591;47.080;22.214;2023-01-29T01:23:54;100082.91;;;4.80;55.84
21803;BME280;18591;47.080;22.214;2023-01-29T01:25:57;100079.38;;;4.72;55.55
21803;BME280;18591;47.080;22.214;2023-01-29T01:28:01;100086.50;;;4.73;55.75
21803;BME280;18591;47.080;22.214;2023-01-29T01:30:04;100083.81;;;4.73;55.58
21803;BME280;18591;47.080;22.214;2023-01-29T01:32:06;100090.06;;;4.68;55.25
21803;BME280;18591;47.080;22.214;2023-01-29T01:34:09;100082.09;;;4.68;55.44
21803;BME280;18591;47.080;22.214;2023-01-29T01:36:11;100087.38;;;4.74;55.48
21803;BME280;18591;47.080;22.214;2023-01-29T01:38:14;100089.13;;;4.76;55.91
21803;BME280;18591;47.080;22.214;2023-01-29T01:40:19;100087.34;;;4.72;55.86
21803;BME280;18591;47.080;22.214;2023-01-29T01:42:22;100082.94;;;4.70;55.47
21803;BME280;18591;47.080;22.214;2023-01-29T01:46:54;100069.66;;;4.67;55.36
21803;BME280;18591;47.080;22.214;2023-01-29T01:51:05;100081.22;;;4.63;55.54
21803;BME280;18591;47.080;22.214;2023-01-29T01:53:14;100089.19;;;4.59;55.76
21803;BME280;18591;47.080;22.214;2023-01-29T01:55:23;100092.75;;;4.68;55.66
21803;BME280;18591;47.080;22.214;2023-01-29T01:57:27;100096.28;;;4.65;55.83
21803;BME280;18591;47.080;22.214;2023-01-29T01:59:31;100090.94;;;4.67;55.81
21803;BME280;18591;47.080;22.214;2023-01-29T02:01:35;100096.25;;;4.70;55.47
21803;BME280;18591;47.080;22.214;2023-01-29T02:03:52;100105.16;;;4.64;55.41
21803;BME280;18591;47.080;22.214;2023-01-29T02:06:14;100108.69;;;4.71;55.19
21803;BME280;18591;47.080;22.214;2023-01-29T02:09:00;100103.41;;;4.57;54.98
21803;BME280;18591;47.080;22.214;2023-01-29T02:11:21;100117.59;;;4.64;55.56
21803;BME280;18591;47.080;22.214;2023-01-29T02:13:25;100120.22;;;4.68;55.11
21803;BME280;18591;47.080;22.214;2023-01-29T02:15:27;100119.38;;;4.63;54.99
21803;BME280;18591;47.080;22.214;2023-01-29T02:17:30;100115.84;;;4.58;54.93
21803;BME280;18591;47.080;22.214;2023-01-29T02:24:37;100120.31;;;4.44;54.55
21803;BME280;18591;47.080;22.214;2023-01-29T02:34:14;100134.50;;;4.49;55.10
21803;BME280;18591;47.080;22.214;2023-01-29T02:36:40;100138.94;;;4.53;55.36
21803;BME280;18591;47.080;22.214;2023-01-29T02:41:10;100151.41;;;4.37;55.04
21803;BME280;18591;47.080;22.214;2023-01-29T02:45:31;100147.84;;;4.40;55.94
21803;BME280;18591;47.080;22.214;2023-01-29T02:47:47;100155.78;;;4.49;55.39
21803;BME280;18591;47.080;22.214;2023-01-29T02:57:48;100162.88;;;4.48;55.59
21803;BME280;18591;47.080;22.214;2023-01-29T02:59:56;100163.81;;;4.40;56.01
21803;BME280;18591;47.080;22.214;2023-01-29T03:02:07;100167.38;;;4.37;56.23
21803;BME280;18591;47.080;22.214;2023-01-29T03:04:17;100170.88;;;4.41;56.29
21803;BME280;18591;47.080;22.214;2023-01-29T03:06:25;100167.31;;;4.48;55.52
21803;BME280;18591;47.080;22.214;2023-01-29T03:08:42;100162.91;;;4.41;55.64
21803;BME280;18591;47.080;22.214;2023-01-29T03:10:55;100172.66;;;4.40;55.71
21803;BME280;18591;47.080;22.214;2023-01-29T03:15:15;100171.81;;;4.30;56.27
21803;BME280;18591;47.080;22.214;2023-01-29T03:19:46;100177.09;;;4.36;56.42
21803;BME280;18591;47.080;22.214;2023-01-29T03:21:58;100170.03;;;4.29;56.09
21803;BME280;18591;47.080;22.214;2023-01-29T03:27:56;100171.78;;;4.33;55.42
21803;BME280;18591;47.080;22.214;2023-01-29T03:30:21;100177.16;;;4.24;55.84
21803;BME280;18591;47.080;22.214;2023-01-29T03:33:09;100174.50;;;4.23;56.35
21803;BME280;18591;47.080;22.214;2023-01-29T03:35:14;100176.25;;;4.24;56.05
21803;BME280;18591;47.080;22.214;2023-01-29T03:37:30;100167.34;;;4.34;56.01
21803;BME280;18591;47.080;22.214;2023-01-29T03:39:39;100170.00;;;4.40;55.92
21803;BME280;18591;47.080;22.214;2023-01-29T03:44:09;100164.75;;;4.20;55.96
21803;BME280;18591;47.080;22.214;2023-01-29T03:46:37;100170.97;;;4.11;55.95
21803;BME280;18591;47.080;22.214;2023-01-29T03:51:36;100162.97;;;4.16;56.01
21803;BME280;18591;47.080;22.214;2023-01-29T03:53:46;100165.63;;;4.19;55.93
21803;BME280;18591;47.080;22.214;2023-01-29T03:56:01;100170.06;;;4.17;55.72
21803;BME280;18591;47.080;22.214;2023-01-29T03:58:28;100170.09;;;4.00;56.11
21803;BME280;18591;47.080;22.214;2023-01-29T04:00:40;100173.63;;;4.01;55.98
21803;BME280;18591;47.080;22.214;2023-01-29T04:03:06;100173.66;;;3.99;56.12
21803;BME280;18591;47.080;22.214;2023-01-29T04:05:17;100185.16;;;4.03;56.42
21803;BME280;18591;47.080;22.214;2023-01-29T04:07:44;100178.06;;;4.05;56.20
21803;BME280;18591;47.080;22.214;2023-01-29T04:09:58;100186.03;;;4.08;56.18
21803;BME280;18591;47.080;22.214;2023-01-29T04:12:08;100195.81;;;3.92;56.12
21803;BME280;18591;47.080;22.214;2023-01-29T04:14:15;100190.47;;;3.98;56.53
21803;BME280;18591;47.080;22.214;2023-01-29T04:16:24;100194.91;;;4.02;56.51
21803;BME280;18591;47.080;22.214;2023-01-29T04:19:00;100196.69;;;3.94;56.43
21803;BME280;18591;47.080;22.214;2023-01-29T04:21:11;100187.81;;;3.98;56.51
21803;BME280;18591;47.080;22.214;2023-01-29T04:23:24;100187.84;;;3.90;56.27
21803;BME280;18591;47.080;22.214;2023-01-29T04:25:37;100194.91;;;3.99;56.23
21803;BME280;18591;47.080;22.214;2023-01-29T04:28:36;100197.56;;;3.79;56.65
21803;BME280;18591;47.080;22.214;2023-01-29T04:33:03;100198.47;;;3.84;56.26
21803;BME280;18591;47.080;22.214;2023-01-29T04:40:32;100204.69;;;3.73;57.06
21803;BME280;18591;47.080;22.214;2023-01-29T04:43:13;100210.88;;;3.71;56.64
21803;BME280;18591;47.080;22.214;2023-01-29T04:50:43;100211.75;;;3.60;57.04
21803;BME280;18591;47.080;22.214;2023-01-29T04:55:53;100204.69;;;3.68;56.91
21803;BME280;18591;47.080;22.214;2023-01-29T04:59:50;100202.00;;;3.49;57.14
21803;BME280;18591;47.080;22.214;2023-01-29T05:01:58;100205.53;;;3.56;57.13
21803;BME280;18591;47.080;22.214;2023-01-29T05:04:13;100203.75;;;3.54;57.51
21803;BME280;18591;47.080;22.214;2023-01-29T05:06:17;100206.44;;;3.61;57.20
21803;BME280;18591;47.080;22.214;2023-01-29T05:08:23;100198.47;;;3.63;57.22
21803;BME280;18591;47.080;22.214;2023-01-29T05:10:26;100202.03;;;3.65;57.27
21803;BME280;18591;47.080;22.214;2023-01-29T05:12:29;100202.88;;;3.64;56.87
21803;BME280;18591;47.080;22.214;2023-01-29T05:14:33;100206.44;;;3.61;57.30
21803;BME280;18591;47.080;22.214;2023-01-29T05:16:45;100212.63;;;3.54;57.19
21803;BME280;18591;47.080;22.214;2023-01-29T05:18:48;100212.63;;;3.54;57.48
21803;BME280;18591;47.080;22.214;2023-01-29T05:20:52;100211.75;;;3.60;57.31
21803;BME280;18591;47.080;22.214;2023-01-29T05:22:57;100216.16;;;3.59;57.20
21803;BME280;18591;47.080;22.214;2023-01-29T05:25:00;100217.94;;;3.53;57.89
21803;BME280;18591;47.080;22.214;2023-01-29T05:27:03;100223.25;;;3.62;57.54
21803;BME280;18591;47.080;22.214;2023-01-29T05:29:23;100219.72;;;3.66;57.28
21803;BME280;18591;47.080;22.214;2023-01-29T05:31:25;100224.13;;;3.67;57.22
21803;BME280;18591;47.080;22.214;2023-01-29T05:33:29;100225.03;;;3.58;57.66
21803;BME280;18591;47.080;22.214;2023-01-29T05:35:32;100223.25;;;3.53;57.22
21803;BME280;18591;47.080;22.214;2023-01-29T05:37:34;100223.25;;;3.56;57.39
21803;BME280;18591;47.080;22.214;2023-01-29T05:39:36;100224.16;;;3.55;57.45
21803;BME280;18591;47.080;22.214;2023-01-29T05:41:39;100218.81;;;3.53;57.36
21803;BME280;18591;47.080;22.214;2023-01-29T05:43:44;100223.25;;;3.56;57.35
21803;BME280;18591;47.080;22.214;2023-01-29T05:45:56;100228.56;;;3.51;57.51
21803;BME280;18591;47.080;22.214;2023-01-29T05:47:59;100233.88;;;3.56;57.48
21803;BME280;18591;47.080;22.214;2023-01-29T05:50:02;100239.22;;;3.57;57.11
21803;BME280;18591;47.080;22.214;2023-01-29T05:52:07;100230.34;;;3.55;57.22
21803;BME280;18591;47.080;22.214;2023-01-29T05:54:11;100238.31;;;3.52;57.31
21803;BME280;18591;47.080;22.214;2023-01-29T05:56:13;100232.13;;;3.55;58.02
21803;BME280;18591;47.080;22.214;2023-01-29T05:58:15;100233.00;;;3.58;57.32
21803;BME280;18591;47.080;22.214;2023-01-29T06:00:20;100226.78;;;3.56;57.87
21803;BME280;18591;47.080;22.214;2023-01-29T06:02:23;100235.66;;;3.58;57.44
21803;BME280;18591;47.080;22.214;2023-01-29T06:04:25;100237.44;;;3.58;57.54
21803;BME280;18591;47.080;22.214;2023-01-29T06:06:27;100242.75;;;3.55;57.49
21803;BME280;18591;47.080;22.214;2023-01-29T06:08:29;100240.97;;;3.58;57.60
21803;BME280;18591;47.080;22.214;2023-01-29T06:10:32;100236.53;;;3.59;57.66
21803;BME280;18591;47.080;22.214;2023-01-29T06:12:35;100234.75;;;3.59;57.59
21803;BME280;18591;47.080;22.214;2023-01-29T06:14:37;100232.13;;;3.61;57.34
21803;BME280;18591;47.080;22.214;2023-01-29T06:16:39;100235.69;;;3.60;57.68
21803;BME280;18591;47.080;22.214;2023-01-29T06:18:41;100237.44;;;3.68;57.48
21803;BME280;18591;47.080;22.214;2023-01-29T06:20:44;100227.69;;;3.64;57.50
21803;BME280;18591;47.080;22.214;2023-01-29T06:22:46;100228.59;;;3.71;56.90
21803;BME280;18591;47.080;22.214;2023-01-29T06:24:48;100231.25;;;3.66;57.17
21803;BME280;18591;47.080;22.214;2023-01-29T06:26:50;100231.25;;;3.65;57.67
21803;BME280;18591;47.080;22.214;2023-01-29T06:28:52;100233.91;;;3.71;57.43
21803;BME280;18591;47.080;22.214;2023-01-29T06:31:02;100237.44;;;3.67;57.58
21803;BME280;18591;47.080;22.214;2023-01-29T06:33:24;100233.91;;;3.77;57.78
21803;BME280;18591;47.080;22.214;2023-01-29T06:35:27;100225.94;;;3.82;57.58
21803;BME280;18591;47.080;22.214;2023-01-29T06:37:31;100230.38;;;3.75;57.53
21803;BME280;18591;47.080;22.214;2023-01-29T06:39:33;100238.34;;;3.78;56.99
21803;BME280;18591;47.080;22.214;2023-01-29T06:41:35;100245.41;;;3.82;57.21
21803;BME280;18591;47.080;22.214;2023-01-29T06:43:38;100255.16;;;3.79;57.52
21803;BME280;18591;47.080;22.214;2023-01-29T06:46:07;100256.94;;;3.70;57.79
21803;BME280;18591;47.080;22.214;2023-01-29T06:48:09;100256.03;;;3.82;57.65
21803;BME280;18591;47.080;22.214;2023-01-29T06:50:14;100250.75;;;3.85;57.75
21803;BME280;18591;47.080;22.214;2023-01-29T06:52:16;100256.97;;;3.93;57.13
21803;BME280;18591;47.080;22.214;2023-01-29T06:54:19;100258.72;;;3.87;57.68
21803;BME280;18591;47.080;22.214;2023-01-29T06:56:22;100263.13;;;3.85;57.73
21803;BME280;18591;47.080;22.214;2023-01-29T06:58:24;100263.16;;;3.89;57.84
21803;BME280;18591;47.080;22.214;2023-01-29T07:00:29;100258.72;;;3.88;57.09
21803;BME280;18591;47.080;22.214;2023-01-29T07:02:32;100261.38;;;3.90;57.29
21803;BME280;18591;47.080;22.214;2023-01-29T07:04:34;100264.03;;;3.90;57.51
21803;BME280;18591;47.080;22.214;2023-01-29T07:06:37;100267.59;;;3.92;57.40
21803;BME280;18591;47.080;22.214;2023-01-29T07:08:39;100253.38;;;4.01;57.19
21803;BME280;18591;47.080;22.214;2023-01-29T07:10:42;100258.72;;;4.02;57.44
21803;BME280;18591;47.080;22.214;2023-01-29T07:12:44;100267.59;;;4.01;57.43
21803;BME280;18591;47.080;22.214;2023-01-29T07:14:46;100264.03;;;4.07;57.20
21803;BME280;18591;47.080;22.214;2023-01-29T07:16:48;100272.91;;;4.03;57.48
21803;BME280;18591;47.080;22.214;2023-01-29T07:18:51;100269.34;;;4.05;57.32
21803;BME280;18591;47.080;22.214;2023-01-29T07:20:53;100265.81;;;4.09;57.24
21803;BME280;18591;47.080;22.214;2023-01-29T07:22:56;100272.88;;;4.06;57.06
21803;BME280;18591;47.080;22.214;2023-01-29T07:24:59;100275.56;;;4.03;57.60
21803;BME280;18591;47.080;22.214;2023-01-29T07:27:01;100267.59;;;4.09;57.65
21803;BME280;18591;47.080;22.214;2023-01-29T07:29:04;100268.47;;;4.12;57.50
21803;BME280;18591;47.080;22.214;2023-01-29T07:31:07;100275.56;;;4.07;57.73
21803;BME280;18591;47.080;22.214;2023-01-29T07:33:12;100281.75;;;4.05;57.77
21803;BME280;18591;47.080;22.214;2023-01-29T07:35:15;100287.97;;;4.10;57.42
21803;BME280;18591;47.080;22.214;2023-01-29T07:37:17;100279.09;;;4.03;57.86
21803;BME280;18591;47.080;22.214;2023-01-29T07:39:19;100287.06;;;4.11;57.50
21803;BME280;18591;47.080;22.214;2023-01-29T07:41:21;100288.88;;;4.12;57.53
21803;BME280;18591;47.080;22.214;2023-01-29T07:43:26;100285.31;;;4.11;57.92
21803;BME280;18591;47.080;22.214;2023-01-29T07:45:29;100280.88;;;4.21;57.15
21803;BME280;18591;47.080;22.214;2023-01-29T07:47:31;100287.97;;;4.14;57.24
21803;BME280;18591;47.080;22.214;2023-01-29T07:49:33;100283.56;;;4.17;57.52
21803;BME280;18591;47.080;22.214;2023-01-29T07:51:38;100290.63;;;4.07;57.91
21803;BME280;18591;47.080;22.214;2023-01-29T07:53:41;100295.06;;;4.17;57.58
21803;BME280;18591;47.080;22.214;2023-01-29T07:55:45;100288.84;;;4.23;57.64
21803;BME280;18591;47.080;22.214;2023-01-29T07:57:47;100282.66;;;4.19;57.45
21803;BME280;18591;47.080;22.214;2023-01-29T07:59:56;100286.19;;;4.23;57.34
21803;BME280;18591;47.080;22.214;2023-01-29T08:02:01;100283.53;;;4.20;57.17
21803;BME280;18591;47.080;22.214;2023-01-29T08:04:03;100289.72;;;4.26;56.89
21803;BME280;18591;47.080;22.214;2023-01-29T08:06:06;100286.19;;;4.27;57.37
21803;BME280;18591;47.080;22.214;2023-01-29T08:08:08;100283.53;;;4.27;57.27
21803;BME280;18591;47.080;22.214;2023-01-29T08:10:11;100274.66;;;4.25;57.70
21803;BME280;18591;47.080;22.214;2023-01-29T08:12:14;100276.44;;;4.26;57.55
21803;BME280;18591;47.080;22.214;2023-01-29T08:14:16;100286.19;;;4.29;57.54
21803;BME280;18591;47.080;22.214;2023-01-29T08:16:18;100282.66;;;4.34;57.69
21803;BME280;18591;47.080;22.214;2023-01-29T08:18:21;100293.28;;;4.41;57.63
21803;BME280;18591;47.080;22.214;2023-01-29T08:20:24;100281.75;;;4.37;57.27
21803;BME280;18591;47.080;22.214;2023-01-29T08:22:26;100278.19;;;4.36;57.69
21803;BME280;18591;47.080;22.214;2023-01-29T08:24:28;100284.38;;;4.46;57.56
21803;BME280;18591;47.080;22.214;2023-01-29T08:26:51;100283.50;;;4.46;57.11
21803;BME280;18591;47.080;22.214;2023-01-29T08:28:55;100291.50;;;4.43;57.06
21803;BME280;18591;47.080;22.214;2023-01-29T08:31:00;100284.41;;;4.43;57.33
21803;BME280;18591;47.080;22.214;2023-01-29T08:33:03;100299.50;;;4.47;57.10
21803;BME280;18591;47.080;22.214;2023-01-29T08:35:06;100300.34;;;4.46;57.62
21803;BME280;18591;47.080;22.214;2023-01-29T08:37:08;100304.78;;;4.49;57.20
21803;BME280;18591;47.080;22.214;2023-01-29T08:39:10;100299.47;;;4.49;56.96
21803;BME280;18591;47.080;22.214;2023-01-29T08:41:13;100295.03;;;4.60;57.11
21803;BME280;18591;47.080;22.214;2023-01-29T08:43:15;100291.47;;;4.56;56.61
21803;BME280;18591;47.080;22.214;2023-01-29T08:45:18;100296.81;;;4.55;57.02
21803;BME280;18591;47.080;22.214;2023-01-29T08:47:21;100291.50;;;4.49;56.80
21803;BME280;18591;47.080;22.214;2023-01-29T08:49:23;100297.69;;;4.51;57.06
21803;BME280;18591;47.080;22.214;2023-01-29T08:51:25;100291.50;;;4.53;56.87
21803;BME280;18591;47.080;22.214;2023-01-29T08:53:28;100289.72;;;4.49;57.05
21803;BME280;18591;47.080;22.214;2023-01-29T08:55:38;100289.72;;;4.54;56.81
21803;BME280;18591;47.080;22.214;2023-01-29T08:57:40;100295.91;;;4.54;56.97
21803;BME280;18591;47.080;22.214;2023-01-29T08:59:42;100302.13;;;4.66;56.83
21803;BME280;18591;47.080;22.214;2023-01-29T09:01:44;100300.31;;;4.65;56.79
21803;BME280;18591;47.080;22.214;2023-01-29T09:03:46;100295.91;;;4.62;56.87
21803;BME280;18591;47.080;22.214;2023-01-29T09:05:48;100295.91;;;4.64;56.72
21803;BME280;18591;47.080;22.214;2023-01-29T09:07:50;100299.47;;;4.61;56.96
21803;BME280;18591;47.080;22.214;2023-01-29T09:09:55;100298.53;;;4.70;57.10
21803;BME280;18591;47.080;22.214;2023-01-29T09:11:57;100302.09;;;4.64;56.85
21803;BME280;18591;47.080;22.214;2023-01-29T09:13:59;100304.75;;;4.69;56.51
21803;BME280;18591;47.080;22.214;2023-01-29T09:16:03;100305.66;;;4.75;56.66
21803;BME280;18591;47.080;22.214;2023-01-29T09:18:05;100307.41;;;4.78;56.34
21803;BME280;18591;47.080;22.214;2023-01-29T09:20:08;100294.97;;;4.85;56.19
21803;BME280;18591;47.080;22.214;2023-01-29T09:22:10;100294.13;;;4.69;56.29
21803;BME280;18591;47.080;22.214;2023-01-29T09:24:13;100297.66;;;4.77;56.34
21803;BME280;18591;47.080;22.214;2023-01-29T09:26:15;100301.22;;;4.73;56.32
21803;BME280;18591;47.080;22.214;2023-01-29T09:28:17;100306.53;;;4.73;56.58
21803;BME280;18591;47.080;22.214;2023-01-29T09:30:44;100308.31;;;4.71;56.09
21803;BME280;18591;47.080;22.214;2023-01-29T09:32:49;100299.41;;;4.79;56.12
21803;BME280;18591;47.080;22.214;2023-01-29T09:34:56;100309.19;;;4.80;56.16
21803;BME280;18591;47.080;22.214;2023-01-29T09:36:58;100314.50;;;4.80;55.89
21803;BME280;18591;47.080;22.214;2023-01-29T09:39:00;100312.72;;;4.75;56.23
21803;BME280;18591;47.080;22.214;2023-01-29T09:43:13;100305.66;;;4.68;56.58
21803;BME280;18591;47.080;22.214;2023-01-29T09:45:23;100303.88;;;4.73;56.30
21803;BME280;18591;47.080;22.214;2023-01-29T09:47:27;100310.06;;;4.84;56.51
21803;BME280;18591;47.080;22.214;2023-01-29T09:49:37;100301.19;;;4.84;55.73
21803;BME280;18591;47.080;22.214;2023-01-29T09:51:50;100312.72;;;4.75;56.36
21803;BME280;18591;47.080;22.214;2023-01-29T09:54:01;100305.59;;;4.88;55.75
21803;BME280;18591;47.080;22.214;2023-01-29T09:56:12;100311.81;;;4.87;56.16
21803;BME280;18591;47.080;22.214;2023-01-29T10:02:49;100325.16;;;4.88;55.90
21803;BME280;18591;47.080;22.214;2023-01-29T10:10:06;100328.66;;;4.90;56.10
21803;BME280;18591;47.080;22.214;2023-01-29T10:12:37;100323.34;;;4.90;55.86
21803;BME280;18591;47.080;22.214;2023-01-29T10:15:12;100324.25;;;4.94;56.19
21803;BME280;18591;47.080;22.214;2023-01-29T10:24:59;100330.41;;;5.00;55.83
21803;BME280;18591;47.080;22.214;2023-01-29T10:27:15;100332.19;;;5.05;55.85
21803;BME280;18591;47.080;22.214;2023-01-29T10:29:19;100339.28;;;5.02;56.07
21803;BME280;18591;47.080;22.214;2023-01-29T10:31:30;100332.19;;;5.01;56.42
21803;BME280;18591;47.080;22.214;2023-01-29T10:33:40;100332.19;;;5.05;56.42
21803;BME280;18591;47.080;22.214;2023-01-29T10:36:06;100337.53;;;5.00;56.55
21803;BME280;18591;47.080;22.214;2023-01-29T10:38:34;100341.97;;;4.90;56.37
21803;BME280;18591;47.080;22.214;2023-01-29T10:40:45;100336.66;;;4.95;56.75
21803;BME280;18591;47.080;22.214;2023-01-29T11:00:51;100326.91;;;4.98;55.82
21803;BME280;18591;47.080;22.214;2023-01-29T11:02:34;100323.31;;;5.04;56.29
21803;BME280;18591;47.080;22.214;2023-01-29T11:04:36;100318.88;;;5.03;55.98
21803;BME280;18591;47.080;22.214;2023-01-29T11:06:40;100317.09;;;5.02;55.94
21803;BME280;18591;47.080;22.214;2023-01-29T11:08:51;100315.31;;;5.02;55.88
21803;BME280;18591;47.080;22.214;2023-01-29T11:13:13;100308.22;;;5.09;55.90
21803;BME280;18591;47.080;22.214;2023-01-29T11:15:18;100295.78;;;5.07;55.93
21803;BME280;18591;47.080;22.214;2023-01-29T11:17:23;100297.56;;;5.08;55.85
21803;BME280;18591;47.080;22.214;2023-01-29T11:19:40;100302.88;;;5.05;55.92
21803;BME280;18591;47.080;22.214;2023-01-29T11:21:57;100296.69;;;4.99;55.90
21803;BME280;18591;47.080;22.214;2023-01-29T11:26:17;100297.56;;;5.08;55.89
21803;BME280;18591;47.080;22.214;2023-01-29T11:30:41;100286.88;;;5.15;55.66
21803;BME280;18591;47.080;22.214;2023-01-29T11:32:43;100285.13;;;5.11;56.09
21803;BME280;18591;47.080;22.214;2023-01-29T11:37:02;100279.81;;;5.05;56.08
21803;BME280;18591;47.080;22.214;2023-01-29T11:41:16;100283.31;;;5.15;55.73
21803;BME280;18591;47.080;22.214;2023-01-29T11:45:28;100273.59;;;5.06;55.00
21803;BME280;18591;47.080;22.214;2023-01-29T11:47:33;100276.22;;;5.17;55.24
21803;BME280;18591;47.080;22.214;2023-01-29T11:49:35;100272.66;;;5.18;54.60
21803;BME280;18591;47.080;22.214;2023-01-29T11:51:39;100276.22;;;5.17;55.25
21803;BME280;18591;47.080;22.214;2023-01-29T11:53:44;100276.25;;;5.14;55.18
21803;BME280;18591;47.080;22.214;2023-01-29T11:55:50;100270.00;;;5.10;54.50
21803;BME280;18591;47.080;22.214;2023-01-29T11:58:02;100270.91;;;5.12;54.83
21803;BME280;18591;47.080;22.214;2023-01-29T12:00:16;100270.91;;;5.09;55.02
21803;BME280;18591;47.080;22.214;2023-01-29T12:02:36;100267.41;;;4.95;54.95
21803;BME280;18591;47.080;22.214;2023-01-29T12:04:39;100265.59;;;5.03;54.89
21803;BME280;18591;47.080;22.214;2023-01-29T12:06:43;100260.28;;;5.05;54.94
21803;BME280;18591;47.080;22.214;2023-01-29T12:08:54;100269.16;;;5.02;54.92
21803;BME280;18591;47.080;22.214;2023-01-29T12:11:09;100262.09;;;4.95;54.56
21803;BME280;18591;47.080;22.214;2023-01-29T12:15:16;100266.50;;;5.05;54.07
21803;BME280;18591;47.080;22.214;2023-01-29T12:17:23;100258.47;;;5.08;53.55
21803;BME280;18591;47.080;22.214;2023-01-29T12:21:38;100261.22;;;4.96;54.09
21803;BME280;18591;47.080;22.214;2023-01-29T12:24:00;100258.53;;;4.99;54.60
21803;BME280;18591;47.080;22.214;2023-01-29T12:26:14;100264.75;;;4.99;53.92
21803;BME280;18591;47.080;22.214;2023-01-29T12:31:10;100257.66;;;4.88;54.04
21803;BME280;18591;47.080;22.214;2023-01-29T12:33:23;100250.56;;;4.94;54.22
21803;BME280;18591;47.080;22.214;2023-01-29T12:35:31;100251.47;;;4.92;54.02
21803;BME280;18591;47.080;22.214;2023-01-29T12:39:50;100250.56;;;4.94;54.09
21803;BME280;18591;47.080;22.214;2023-01-29T12:41:59;100251.47;;;4.89;54.34
21803;BME280;18591;47.080;22.214;2023-01-29T12:44:18;100244.34;;;4.88;54.25
21803;BME280;18591;47.080;22.214;2023-01-29T12:46:26;100246.13;;;4.93;54.02
21803;BME280;18591;47.080;22.214;2023-01-29T12:48:38;100251.44;;;4.95;54.18
21803;BME280;18591;47.080;22.214;2023-01-29T12:50:44;100246.06;;;5.06;53.85
21803;BME280;18591;47.080;22.214;2023-01-29T12:54:59;100244.34;;;4.92;54.02
21803;BME280;18591;47.080;22.214;2023-01-29T12:57:07;100252.31;;;5.00;54.14
21803;BME280;18591;47.080;22.214;2023-01-29T12:59:25;100248.75;;;4.98;54.38
21803;BME280;18591;47.080;22.214;2023-01-29T13:01:36;100240.78;;;4.96;54.08
21803;BME280;18591;47.080;22.214;2023-01-29T13:03:48;100251.41;;;5.04;53.98
21803;BME280;18591;47.080;22.214;2023-01-29T13:05:56;100256.78;;;4.96;54.03
21803;BME280;18591;47.080;22.214;2023-01-29T13:08:15;100250.53;;;4.99;53.08